Time;durP1;ratioP1;P1;durP2;ratioP2;P2;SDS_P1;SDS_P2;PMS_P1;PMS_P2;Temp;Humidity;BMP_temperature;BMP_pressure;BME280_temperature;BME280_humidity;BME280_pressure;Samples;Min_cycle;Max_cycle;Signal;HPM_P1;HPM_P2
2023/04/18 00:00:31;;;;;;;11.67;6.87;;;9.40;98.60;;;;;;5068879;28;20509;-56
2023/04/18 00:02:57;;;;;;;9.73;6.03;;;9.30;98.40;;;;;;5068086;28;20086;-52
2023/04/18 00:05:23;;;;;;;11.13;7.03;;;9.30;98.80;;;;;;5068551;28;20036;-56
2023/04/18 00:07:50;;;;;;;11.53;6.87;;;9.20;99.20;;;;;;5068305;28;20386;-54
2023/04/18 00:10:16;;;;;;;17.33;7.10;;;9.10;99.50;;;;;;5068620;28;20049;-53
2023/04/18 00:12:41;;;;;;;13.30;7.13;;;9.10;99.80;;;;;;5068581;28;20029;-53
2023/04/18 00:15:08;;;;;;;11.60;7.27;;;9.00;99.90;;;;;;5068221;28;20089;-54
2023/04/18 00:17:37;;;;;;;13.27;7.20;;;9.00;99.90;;;;;;5067393;28;20069;-54
2023/04/18 00:20:09;;;;;;;13.00;7.50;;;9.00;99.90;;;;;;5068625;28;20358;-54
2023/04/18 00:22:41;;;;;;;13.60;7.27;;;8.90;99.90;;;;;;5068501;28;20036;-53
2023/04/18 00:25:07;;;;;;;12.07;7.67;;;8.90;99.90;;;;;;5068547;28;20518;-54
2023/04/18 00:27:33;;;;;;;11.43;6.93;;;8.80;99.90;;;;;;5068078;28;20500;-52
2023/04/18 00:29:59;;;;;;;14.33;6.93;;;8.80;99.90;;;;;;5068073;28;20036;-55
2023/04/18 00:32:24;;;;;;;13.47;7.23;;;8.80;99.90;;;;;;5067781;28;20124;-56
2023/04/18 00:34:50;;;;;;;11.90;7.20;;;8.70;99.90;;;;;;5067025;28;20035;-55
2023/04/18 00:37:18;;;;;;;13.13;7.97;;;8.70;99.90;;;;;;5068339;28;20028;-54
2023/04/18 00:39:43;;;;;;;12.83;7.73;;;8.70;99.90;;;;;;5066940;28;20036;-53
2023/04/18 00:42:09;;;;;;;12.13;7.80;;;8.60;99.90;;;;;;5068535;28;20481;-55
2023/04/18 00:44:35;;;;;;;11.80;7.63;;;8.50;99.90;;;;;;5066572;28;20082;-55
2023/04/18 00:47:01;;;;;;;12.80;7.93;;;8.50;99.90;;;;;;5067476;28;20063;-53
2023/04/18 00:49:26;;;;;;;12.77;7.23;;;8.50;99.90;;;;;;5068095;28;20086;-53
2023/04/18 00:51:54;;;;;;;14.23;7.47;;;8.40;99.90;;;;;;5069383;28;20033;-52
2023/04/18 00:54:21;;;;;;;11.17;7.20;;;8.40;99.90;;;;;;5071850;28;20116;-53
2023/04/18 00:56:47;;;;;;;13.90;7.50;;;8.40;99.90;;;;;;5070202;28;20485;-55
2023/04/18 00:59:14;;;;;;;12.73;7.60;;;8.30;99.90;;;;;;5071825;28;20028;-54
2023/04/18 01:01:40;;;;;;;12.90;7.83;;;8.30;99.90;;;;;;5069341;28;20032;-56
2023/04/18 01:04:07;;;;;;;13.10;7.50;;;8.30;99.90;;;;;;5071767;28;20035;-55
2023/04/18 01:06:33;;;;;;;13.50;7.77;;;8.30;99.90;;;;;;5071700;28;20539;-55
2023/04/18 01:09:01;;;;;;;12.43;8.07;;;8.20;99.90;;;;;;5072051;28;20071;-54
2023/04/18 01:11:27;;;;;;;11.60;7.80;;;8.20;99.90;;;;;;5070242;28;20498;-54
2023/04/18 01:14:00;;;;;;;15.70;7.97;;;8.10;99.90;;;;;;5071771;28;20054;-55
2023/04/18 01:16:27;;;;;;;12.10;7.53;;;8.10;99.90;;;;;;5070285;28;20469;-50
2023/04/18 01:18:53;;;;;;;13.23;7.67;;;8.00;99.90;;;;;;5070500;28;20029;-51
2023/04/18 01:21:20;;;;;;;12.33;7.80;;;8.00;99.90;;;;;;5070428;28;20044;-53
2023/04/18 01:23:50;;;;;;;11.70;7.63;;;7.90;99.90;;;;;;5071784;28;20033;-54
2023/04/18 01:26:16;;;;;;;15.27;7.77;;;7.90;99.90;;;;;;5071563;28;20025;-55
2023/04/18 01:28:42;;;;;;;12.93;8.17;;;7.80;99.90;;;;;;5069743;28;20036;-55
2023/04/18 01:31:07;;;;;;;12.30;6.80;;;7.80;99.90;;;;;;5070914;28;20043;-55
2023/04/18 01:33:35;;;;;;;13.87;7.40;;;7.80;99.90;;;;;;5070535;28;20021;-54
2023/04/18 01:36:01;;;;;;;12.03;7.60;;;7.70;99.90;;;;;;5071301;28;20025;-50
2023/04/18 01:38:29;;;;;;;13.20;8.30;;;7.70;99.90;;;;;;5069629;28;20512;-53
2023/04/18 01:40:55;;;;;;;12.87;7.40;;;7.70;99.90;;;;;;5069881;28;20032;-55
2023/04/18 01:43:21;;;;;;;12.07;7.90;;;7.70;99.90;;;;;;5070654;28;20036;-54
2023/04/18 01:45:46;;;;;;;14.13;7.87;;;7.60;99.90;;;;;;5070762;28;20108;-52
2023/04/18 01:48:12;;;;;;;13.63;8.37;;;7.60;99.90;;;;;;5069996;28;20054;-51
2023/04/18 01:50:40;;;;;;;13.33;7.50;;;7.50;99.90;;;;;;5070820;28;20040;-53
2023/04/18 01:53:06;;;;;;;13.37;7.53;;;7.50;99.90;;;;;;5069298;28;20029;-52
2023/04/18 01:55:32;;;;;;;14.80;8.33;;;7.50;99.90;;;;;;5070715;28;20035;-53
2023/04/18 01:57:58;;;;;;;12.97;7.37;;;7.40;99.90;;;;;;5068768;28;20055;-53
2023/04/18 02:00:24;;;;;;;13.97;7.80;;;7.40;99.90;;;;;;5069103;28;20147;-52
2023/04/18 02:02:49;;;;;;;11.00;7.30;;;7.40;99.90;;;;;;5069839;28;20058;-52
2023/04/18 02:05:15;;;;;;;15.43;8.63;;;7.30;99.90;;;;;;5070544;28;20036;-51
2023/04/18 02:07:41;;;;;;;11.23;7.50;;;7.30;99.90;;;;;;5068939;28;20079;-52
2023/04/18 02:10:10;;;;;;;10.83;7.10;;;7.30;99.90;;;;;;5069252;28;20118;-55
2023/04/18 02:12:36;;;;;;;12.05;6.93;;;7.20;99.90;;;;;;5069098;28;20453;-52
2023/04/18 02:15:02;;;;;;;10.93;7.10;;;7.20;99.90;;;;;;5068703;28;20032;-54
2023/04/18 02:17:29;;;;;;;12.60;7.27;;;7.10;99.90;;;;;;5068297;28;20024;-53
2023/04/18 02:19:55;;;;;;;10.80;7.10;;;7.10;99.90;;;;;;5068900;28;20127;-51
2023/04/18 02:22:20;;;;;;;11.93;6.90;;;7.10;99.90;;;;;;5070492;28;20150;-56
2023/04/18 02:24:46;;;;;;;12.87;6.83;;;7.10;99.90;;;;;;5070190;28;20056;-52
2023/04/18 02:27:14;;;;;;;10.37;6.60;;;7.00;99.90;;;;;;5068511;28;20154;-52
2023/04/18 02:29:40;;;;;;;9.60;6.20;;;7.00;99.90;;;;;;5069735;28;20158;-51
2023/04/18 02:32:07;;;;;;;9.63;6.53;;;7.00;99.90;;;;;;5068070;28;20048;-55
2023/04/18 02:34:32;;;;;;;10.63;6.57;;;7.00;99.90;;;;;;5068377;28;20619;-54
2023/04/18 02:36:58;;;;;;;11.03;6.53;;;6.90;99.90;;;;;;5068511;28;20035;-54
2023/04/18 02:39:24;;;;;;;11.60;7.03;;;6.90;99.90;;;;;;5069983;28;20146;-51
2023/04/18 02:41:50;;;;;;;10.77;6.50;;;6.90;99.90;;;;;;5068236;28;20036;-52
2023/04/18 02:44:15;;;;;;;10.27;6.23;;;6.90;99.90;;;;;;5069895;28;20033;-50
2023/04/18 02:46:42;;;;;;;12.93;6.60;;;6.90;99.90;;;;;;5067245;28;20032;-52
2023/04/18 02:49:11;;;;;;;8.70;5.20;;;6.80;99.90;;;;;;5068242;28;20032;-54
2023/04/18 02:51:37;;;;;;;10.50;6.53;;;6.80;99.90;;;;;;5067995;28;20439;-53
2023/04/18 02:54:03;;;;;;;9.83;6.40;;;6.80;99.90;;;;;;5068110;28;20021;-55
2023/04/18 02:56:41;;;;;;;10.67;6.33;;;6.80;99.90;;;;;;5067948;28;20053;-53
2023/04/18 02:59:33;;;;;;;9.43;6.00;;;6.80;99.90;;;;;;5060994;28;20037;-55
2023/04/18 03:02:21;;;;;;;9.33;5.87;;;6.70;99.90;;;;;;5067656;28;20046;-52
2023/04/18 03:04:52;;;;;;;10.47;6.60;;;6.70;99.90;;;;;;5068416;28;20448;-53
2023/04/18 03:07:18;;;;;;;9.47;6.13;;;6.70;99.90;;;;;;5067631;28;20024;-51
2023/04/18 03:09:44;;;;;;;10.40;6.37;;;6.70;99.90;;;;;;5069317;28;20028;-53
2023/04/18 03:12:18;;;;;;;11.17;6.70;;;6.70;99.90;;;;;;5067563;28;20081;-52
2023/04/18 03:14:45;;;;;;;13.07;6.60;;;6.60;99.90;;;;;;5066741;28;20098;-52
2023/04/18 03:17:12;;;;;;;11.40;6.37;;;6.60;99.90;;;;;;5066309;28;20048;-53
2023/04/18 03:19:41;;;;;;;10.45;6.28;;;6.60;99.90;;;;;;5067862;28;20044;-51
2023/04/18 03:22:10;;;;;;;10.77;6.80;;;6.60;99.90;;;;;;5067639;28;20032;-55
2023/04/18 03:24:43;;;;;;;11.90;7.00;;;6.60;99.90;;;;;;5067885;28;20115;-52
2023/04/18 03:27:11;;;;;;;10.67;6.37;;;6.60;99.90;;;;;;5067431;28;20036;-49
2023/04/18 03:29:38;;;;;;;9.87;6.40;;;6.60;99.90;;;;;;5067307;28;20409;-53
2023/04/18 03:32:04;;;;;;;11.67;6.33;;;6.60;99.90;;;;;;5067204;28;20388;-53
2023/04/18 03:34:30;;;;;;;10.90;6.33;;;6.60;99.90;;;;;;5067898;28;20063;-52
2023/04/18 03:36:56;;;;;;;10.77;6.60;;;6.50;99.90;;;;;;5067823;28;20056;-51
2023/04/18 03:39:22;;;;;;;12.07;6.43;;;6.50;99.90;;;;;;5067741;28;20032;-54
2023/04/18 03:41:48;;;;;;;10.27;6.33;;;6.50;99.90;;;;;;5067790;28;20077;-54
2023/04/18 03:44:14;;;;;;;12.40;6.30;;;6.50;99.90;;;;;;5067576;28;20109;-51
2023/04/18 03:46:41;;;;;;;9.73;6.70;;;6.50;99.90;;;;;;5066591;28;20606;-50
2023/04/18 03:49:08;;;;;;;12.47;6.20;;;6.50;99.90;;;;;;5067790;28;20609;-48
2023/04/18 03:51:47;;;;;;;10.40;6.30;;;6.50;99.90;;;;;;5068936;28;20027;-52
2023/04/18 03:54:14;;;;;;;9.85;6.10;;;6.50;99.90;;;;;;5069189;28;20153;-51
2023/04/18 03:56:41;;;;;;;10.83;6.57;;;6.50;99.90;;;;;;5067340;28;20039;-50
2023/04/18 03:59:08;;;;;;;12.17;6.37;;;6.50;99.90;;;;;;5067812;28;20048;-55
2023/04/18 04:01:34;;;;;;;10.67;6.53;;;6.40;99.90;;;;;;5068126;28;20032;-55
2023/04/18 04:04:01;;;;;;;10.53;6.53;;;6.50;99.90;;;;;;5067647;28;20078;-54
2023/04/18 04:06:27;;;;;;;9.93;6.40;;;6.50;99.90;;;;;;5068921;28;20082;-50
2023/04/18 04:08:54;;;;;;;10.97;6.80;;;6.50;99.90;;;;;;5067780;28;20469;-54
2023/04/18 04:11:23;;;;;;;10.97;7.07;;;6.50;99.90;;;;;;5067346;28;20494;-54
2023/04/18 04:13:50;;;;;;;9.83;6.73;;;6.50;99.90;;;;;;5067775;28;20028;-52
2023/04/18 04:16:18;;;;;;;;;;;6.50;99.90;;;;;;5067676;28;20029;-50
2023/04/18 04:18:47;;;;;;;11.77;6.57;;;6.50;99.90;;;;;;5067466;28;19909;-53
2023/04/18 04:21:13;;;;;;;11.80;6.60;;;6.40;99.90;;;;;;5067484;28;20036;-52
2023/04/18 04:23:51;;;;;;;10.53;7.00;;;6.40;99.90;;;;;;5067546;28;20483;-51
2023/04/18 04:26:31;;;;;;;11.80;7.63;;;6.40;99.90;;;;;;5067557;28;20040;-52
2023/04/18 04:29:02;;;;;;;12.93;7.10;;;6.40;99.90;;;;;;5071287;28;20054;-53
2023/04/18 04:31:30;;;;;;;11.60;7.23;;;6.30;99.90;;;;;;5070167;28;20024;-51
2023/04/18 04:33:56;;;;;;;13.60;7.57;;;6.30;99.90;;;;;;5071380;28;20082;-49
2023/04/18 04:36:25;;;;;;;12.47;7.87;;;6.40;99.90;;;;;;5070699;28;20108;-52
2023/04/18 04:38:52;;;;;;;11.55;7.30;;;6.40;99.90;;;;;;5071422;28;20059;-51
2023/04/18 04:41:26;;;;;;;13.17;7.60;;;6.30;99.90;;;;;;5071320;28;20032;-49
2023/04/18 04:43:52;;;;;;;15.67;7.53;;;6.30;99.90;;;;;;5071669;28;20138;-51
2023/04/18 04:46:23;;;;;;;14.40;8.07;;;6.30;99.90;;;;;;5070100;28;20032;-49
2023/04/18 04:48:49;;;;;;;14.20;8.07;;;6.40;99.90;;;;;;5070592;28;20094;-50
2023/04/18 04:51:15;;;;;;;14.23;7.60;;;6.40;99.90;;;;;;5070801;28;20029;-52
2023/04/18 04:53:40;;;;;;;12.03;7.70;;;6.40;99.90;;;;;;5070900;28;20546;-52
2023/04/18 04:56:08;;;;;;;15.60;9.07;;;6.40;99.90;;;;;;5071109;28;20020;-50
2023/04/18 04:58:34;;;;;;;14.47;7.90;;;6.50;99.90;;;;;;5070407;28;20027;-51
2023/04/18 05:01:25;;;;;;;12.50;8.10;;;6.40;99.90;;;;;;5068830;28;20052;-53
2023/04/18 05:03:52;;;;;;;14.43;8.97;;;6.50;99.90;;;;;;5070879;28;20025;-51
2023/04/18 05:06:19;;;;;;;16.77;8.93;;;6.50;99.90;;;;;;5072205;28;20383;-54
2023/04/18 05:08:46;;;;;;;16.33;9.57;;;6.50;99.90;;;;;;5072015;28;20469;-52
2023/04/18 05:11:12;;;;;;;15.13;9.53;;;6.60;99.90;;;;;;5072384;28;20115;-50
2023/04/18 05:13:38;;;;;;;15.40;9.00;;;6.60;99.90;;;;;;5072122;28;20111;-55
2023/04/18 05:16:04;;;;;;;14.13;8.87;;;6.60;99.90;;;;;;5071830;28;20489;-51
2023/04/18 05:18:30;;;;;;;15.20;9.47;;;6.70;99.90;;;;;;5071245;28;20134;-54
2023/04/18 05:20:56;;;;;;;14.07;9.30;;;6.70;99.90;;;;;;5072212;28;20555;-52
2023/04/18 05:23:21;;;;;;;14.73;9.30;;;6.70;99.90;;;;;;5071693;28;20123;-53
2023/04/18 05:25:47;;;;;;;15.80;9.70;;;6.80;99.90;;;;;;5072054;28;20064;-53
2023/04/18 05:28:13;;;;;;;15.30;9.30;;;6.80;99.90;;;;;;5071431;28;20475;-53
2023/04/18 05:30:39;;;;;;;14.17;9.53;;;6.90;99.90;;;;;;5071516;28;20473;-53
2023/04/18 05:33:05;;;;;;;16.10;9.90;;;6.90;99.90;;;;;;5070727;28;20115;-51
2023/04/18 05:35:31;;;;;;;14.10;9.13;;;6.90;99.90;;;;;;5071243;28;20099;-55
2023/04/18 05:37:57;;;;;;;16.50;9.53;;;7.00;99.90;;;;;;5070321;28;20423;-53
2023/04/18 05:40:23;;;;;;;16.17;9.53;;;7.10;99.90;;;;;;5071319;28;20032;-54
2023/04/18 05:42:49;;;;;;;14.57;9.60;;;7.10;99.90;;;;;;5071486;28;20030;-49
2023/04/18 05:45:14;;;;;;;15.47;10.10;;;7.20;99.90;;;;;;5070730;28;20112;-52
2023/04/18 05:47:40;;;;;;;16.03;9.67;;;7.30;99.90;;;;;;5070458;28;20541;-50
2023/04/18 05:50:07;;;;;;;14.03;9.40;;;7.40;99.90;;;;;;5070899;28;20024;-50
2023/04/18 05:52:32;;;;;;;14.63;9.57;;;7.50;99.90;;;;;;5071459;28;20024;-52
2023/04/18 05:54:58;;;;;;;21.80;10.00;;;7.80;99.90;;;;;;5071135;28;20338;-52
2023/04/18 05:57:24;;;;;;;16.03;9.33;;;8.00;99.90;;;;;;5070963;28;20025;-53
2023/04/18 05:59:49;;;;;;;13.77;9.53;;;8.30;99.90;;;;;;5070932;28;20039;-54
2023/04/18 06:02:15;;;;;;;14.07;9.60;;;8.50;99.90;;;;;;5070469;28;20104;-52
2023/04/18 06:04:41;;;;;;;15.33;9.60;;;8.60;99.90;;;;;;5071078;28;20036;-51
2023/04/18 06:07:08;;;;;;;14.80;9.30;;;8.70;99.90;;;;;;5070840;28;20135;-55
2023/04/18 06:09:34;;;;;;;15.33;9.87;;;8.90;99.90;;;;;;5070751;28;20072;-50
2023/04/18 06:12:00;;;;;;;14.57;9.23;;;9.00;99.90;;;;;;5070734;28;20041;-55
2023/04/18 06:14:27;;;;;;;12.67;9.00;;;8.90;99.90;;;;;;5070520;28;20036;-51
2023/04/18 06:16:53;;;;;;;16.07;9.57;;;9.20;99.90;;;;;;5069310;28;20451;-52
2023/04/18 06:19:18;;;;;;;14.57;9.10;;;9.30;99.90;;;;;;5070710;28;20029;-49
2023/04/18 06:21:44;;;;;;;15.57;9.60;;;9.50;99.90;;;;;;5070432;28;20078;-53
2023/04/18 06:24:10;;;;;;;13.87;9.40;;;9.70;99.90;;;;;;5070578;28;20021;-50
2023/04/18 06:26:35;;;;;;;14.47;8.80;;;9.70;99.90;;;;;;5069881;28;20493;-51
2023/04/18 06:29:01;;;;;;;14.33;9.27;;;9.70;99.90;;;;;;5076938;28;20052;-50
2023/04/18 06:31:27;;;;;;;13.17;9.30;;;9.70;99.90;;;;;;5088089;28;20020;-48
2023/04/18 06:33:52;;;;;;;19.63;9.03;;;10.00;99.90;;;;;;5090556;28;20172;-54
2023/04/18 06:36:18;;;;;;;13.37;9.23;;;10.20;99.90;;;;;;5088981;28;20054;-51
2023/04/18 06:38:44;;;;;;;16.03;9.23;;;10.50;99.90;;;;;;5089460;28;20055;-51
2023/04/18 06:41:11;;;;;;;13.07;8.67;;;10.50;99.90;;;;;;5089775;28;20028;-53
2023/04/18 06:43:37;;;;;;;12.80;8.87;;;10.20;99.90;;;;;;5089943;28;20055;-52
2023/04/18 06:46:04;;;;;;;13.20;9.00;;;10.10;99.90;;;;;;5090057;28;20484;-54
2023/04/18 06:48:30;;;;;;;13.20;8.20;;;10.00;99.90;;;;;;5089068;28;20039;-50
2023/04/18 06:50:56;;;;;;;15.53;9.20;;;10.10;99.90;;;;;;5089845;28;20036;-52
2023/04/18 06:53:22;;;;;;;14.50;9.03;;;10.40;99.90;;;;;;5090114;28;20036;-57
2023/04/18 06:55:48;;;;;;;13.53;7.90;;;10.50;99.90;;;;;;5090075;28;20040;-56
2023/04/18 06:58:15;;;;;;;13.10;8.43;;;10.70;99.90;;;;;;5088699;28;20028;-57
2023/04/18 07:00:42;;;;;;;19.53;9.40;;;10.60;99.90;;;;;;5068485;28;20040;-54
2023/04/18 07:03:11;;;;;;;13.40;8.20;;;10.70;99.90;;;;;;5066865;28;20138;-54
2023/04/18 07:05:40;;;;;;;12.77;8.60;;;10.80;99.90;;;;;;5068393;28;20037;-54
2023/04/18 07:08:06;;;;;;;11.00;8.27;;;10.70;99.90;;;;;;5068514;28;20040;-52
2023/04/18 07:10:32;;;;;;;14.13;9.60;;;10.40;99.90;;;;;;5068802;28;20043;-51
2023/04/18 07:12:58;;;;;;;16.43;9.17;;;10.10;99.90;;;;;;5069160;28;20397;-55
2023/04/18 07:15:24;;;;;;;14.90;8.83;;;9.80;99.90;;;;;;5068771;28;20032;-52
2023/04/18 07:17:49;;;;;;;11.97;8.83;;;9.70;99.90;;;;;;5067845;28;20040;-46
2023/04/18 07:20:15;;;;;;;15.70;9.83;;;9.60;99.90;;;;;;5069154;28;20043;-51
2023/04/18 07:22:41;;;;;;;14.03;9.57;;;9.40;99.90;;;;;;5068968;28;20028;-48
2023/04/18 07:25:08;;;;;;;14.30;10.13;;;9.40;99.90;;;;;;5068766;28;20032;-53
2023/04/18 07:27:35;;;;;;;15.03;10.13;;;9.40;99.90;;;;;;5068339;28;20029;-53
2023/04/18 07:30:02;;;;;;;13.93;9.70;;;9.30;99.90;;;;;;5068531;28;20029;-56
2023/04/18 07:32:27;;;;;;;16.10;10.07;;;9.30;99.90;;;;;;5078007;28;20028;-55
2023/04/18 07:34:54;;;;;;;15.43;10.83;;;9.30;99.90;;;;;;5072873;28;20027;-55
2023/04/18 07:37:20;;;;;;;15.83;10.80;;;9.20;99.90;;;;;;5068965;28;20094;-54
2023/04/18 07:39:50;;;;;;;15.37;11.07;;;9.20;99.90;;;;;;5068997;28;20428;-56
2023/04/18 07:42:16;;;;;;;16.63;11.37;;;9.20;99.90;;;;;;5069315;28;20033;-56
2023/04/18 07:44:42;;;;;;;13.57;10.10;;;9.30;99.90;;;;;;5068764;28;20694;-53
2023/04/18 07:47:11;;;;;;;39.50;25.43;;;9.40;99.90;;;;;;5067710;28;20140;-55
2023/04/18 07:49:37;;;;;;;14.30;10.52;;;9.50;99.90;;;;;;5068652;28;20057;-54
2023/04/18 07:52:03;;;;;;;16.63;10.87;;;9.50;99.90;;;;;;5069007;28;20024;-53
2023/04/18 07:54:30;;;;;;;14.43;10.50;;;9.50;99.90;;;;;;5069082;28;20154;-51
2023/04/18 07:56:55;;;;;;;15.17;10.33;;;9.60;99.90;;;;;;5068772;28;20034;-56
2023/04/18 07:59:21;;;;;;;13.83;9.23;;;9.50;99.90;;;;;;5068905;28;20028;-54
2023/04/18 08:01:47;;;;;;;14.87;9.40;;;9.50;99.90;;;;;;5069081;28;20033;-51
2023/04/18 08:04:13;;;;;;;14.20;9.50;;;9.50;99.90;;;;;;5073185;28;20028;-49
2023/04/18 08:06:39;;;;;;;14.83;9.23;;;9.50;99.90;;;;;;5072856;28;20021;-52
2023/04/18 08:09:05;;;;;;;14.17;9.77;;;9.40;99.90;;;;;;5072907;28;20035;-53
2023/04/18 08:11:32;;;;;;;15.50;9.40;;;9.30;99.90;;;;;;5072535;28;20033;-50
2023/04/18 08:13:58;;;;;;;15.03;9.50;;;9.30;99.90;;;;;;5072683;28;20362;-52
2023/04/18 08:16:24;;;;;;;15.13;10.60;;;9.30;99.90;;;;;;5072200;28;20040;-51
2023/04/18 08:18:50;;;;;;;14.90;10.83;;;9.20;99.90;;;;;;5072302;28;20062;-53
2023/04/18 08:21:16;;;;;;;17.90;10.90;;;9.20;99.90;;;;;;5072574;28;20672;-45
2023/04/18 08:23:42;;;;;;;17.33;10.87;;;9.10;99.90;;;;;;5072435;28;20108;-50
2023/04/18 08:26:07;;;;;;;15.90;11.37;;;9.20;99.90;;;;;;5072709;28;20112;-55
2023/04/18 08:28:33;;;;;;;17.03;11.97;;;9.30;99.90;;;;;;5072269;28;20036;-51
2023/04/18 08:30:59;;;;;;;17.83;11.90;;;9.30;99.90;;;;;;5072291;28;20036;-53
2023/04/18 08:33:25;;;;;;;15.97;11.77;;;9.50;99.90;;;;;;5071555;28;20032;-51
2023/04/18 08:35:51;;;;;;;17.57;12.40;;;9.50;99.90;;;;;;5072537;28;20056;-54
2023/04/18 08:38:17;;;;;;;19.17;12.63;;;9.60;99.90;;;;;;5072391;28;20116;-54
2023/04/18 08:40:44;;;;;;;16.03;11.80;;;9.60;99.90;;;;;;5072415;28;20518;-52
2023/04/18 08:43:13;;;;;;;17.10;12.07;;;9.70;99.90;;;;;;5072151;28;20123;-53
2023/04/18 08:45:39;;;;;;;;;;;9.70;99.90;;;;;;5072412;28;20105;-53
2023/04/18 08:48:06;;;;;;;20.23;12.20;;;9.60;99.90;;;;;;5071226;28;19904;-51
2023/04/18 08:50:32;;;;;;;20.10;12.30;;;9.70;99.90;;;;;;5071944;28;20093;-51
2023/04/18 08:53:01;;;;;;;19.27;12.23;;;9.80;99.90;;;;;;5071912;28;20033;-49
2023/04/18 08:55:27;;;;;;;15.27;11.27;;;9.80;99.90;;;;;;5071977;28;20480;-54
2023/04/18 08:57:54;;;;;;;17.00;11.97;;;9.90;99.90;;;;;;5071855;28;20048;-49
2023/04/18 09:00:21;;;;;;;18.17;12.20;;;9.90;99.90;;;;;;5071719;28;20039;-53
2023/04/18 09:02:48;;;;;;;17.40;11.73;;;9.90;99.90;;;;;;5071082;28;20081;-53
2023/04/18 09:05:20;;;;;;;16.50;11.67;;;9.90;99.90;;;;;;5071630;28;20457;-53
2023/04/18 09:07:51;;;;;;;17.57;11.17;;;9.80;99.90;;;;;;5059821;28;20025;-55
2023/04/18 09:10:35;;;;;;;18.27;12.80;;;9.70;99.90;;;;;;5051289;28;20029;-55
2023/04/18 09:13:02;;;;;;;19.70;12.27;;;9.60;99.90;;;;;;5051017;28;20028;-55
2023/04/18 09:15:28;;;;;;;18.70;12.30;;;9.60;99.90;;;;;;5050717;28;20389;-54
2023/04/18 09:17:59;;;;;;;15.80;11.43;;;9.60;99.90;;;;;;5049803;28;20473;-49
2023/04/18 09:20:39;;;;;;;17.40;12.23;;;9.60;99.90;;;;;;5050713;28;20032;-51
2023/04/18 09:23:09;;;;;;;20.97;11.97;;;9.60;99.90;;;;;;5049408;28;20100;-50
2023/04/18 09:25:36;;;;;;;19.13;12.77;;;9.60;99.90;;;;;;5050575;28;20036;-48
2023/04/18 09:28:22;;;;;;;19.57;12.13;;;9.50;99.90;;;;;;5050038;28;20561;-52
2023/04/18 09:30:53;;;;;;;18.60;12.23;;;9.60;99.90;;;;;;5050874;28;20032;-52
2023/04/18 09:33:55;;;;;;;18.60;13.07;;;9.60;99.90;;;;;;5050134;28;20083;-50
2023/04/18 09:36:23;;;;;;;17.37;12.00;;;9.50;99.90;;;;;;5050579;28;20100;-52
2023/04/18 09:38:51;;;;;;;18.43;12.37;;;9.50;99.90;;;;;;5051192;28;20142;-50
2023/04/18 09:41:17;;;;;;;18.30;12.73;;;9.50;99.90;;;;;;5051299;28;20045;-54
2023/04/18 09:43:44;;;;;;;18.83;12.17;;;9.40;99.90;;;;;;5050641;28;20029;-55
2023/04/18 09:46:11;;;;;;;17.13;11.90;;;9.50;99.90;;;;;;5050568;28;20060;-50
2023/04/18 09:48:38;;;;;;;18.77;12.77;;;9.50;99.90;;;;;;5048896;28;20037;-55
2023/04/18 09:51:09;;;;;;;18.90;12.50;;;9.50;99.90;;;;;;5050916;28;20108;-52
2023/04/18 09:53:46;;;;;;;17.23;12.60;;;9.60;99.90;;;;;;5050878;28;20390;-54
2023/04/18 09:56:19;;;;;;;20.83;12.90;;;9.60;99.90;;;;;;5050913;28;20044;-53
2023/04/18 09:58:50;;;;;;;19.20;13.03;;;9.70;99.90;;;;;;5050590;28;20095;-54
2023/04/18 10:01:16;;;;;;;19.80;12.77;;;9.70;99.90;;;;;;5050343;28;20032;-54
2023/04/18 10:03:46;;;;;;;22.27;13.10;;;9.70;99.90;;;;;;5049802;28;20035;-54
2023/04/18 10:06:15;;;;;;;18.10;12.00;;;9.80;99.90;;;;;;5050812;28;20107;-50
2023/04/18 10:08:43;;;;;;;18.67;12.20;;;9.80;99.90;;;;;;5050232;28;20057;-52
2023/04/18 10:11:09;;;;;;;20.57;12.67;;;9.90;99.90;;;;;;5049195;28;20132;-53
2023/04/18 10:13:38;;;;;;;19.63;12.70;;;9.90;99.90;;;;;;5050311;28;20108;-52
2023/04/18 10:16:05;;;;;;;19.67;12.90;;;9.90;99.90;;;;;;5050042;28;20044;-53
2023/04/18 10:18:31;;;;;;;21.80;12.50;;;10.00;99.90;;;;;;5049728;28;20115;-55
2023/04/18 10:21:02;;;;;;;19.03;12.70;;;10.00;99.90;;;;;;5050741;28;20107;-53
2023/04/18 10:23:36;;;;;;;18.53;12.30;;;10.10;99.90;;;;;;5057739;28;20086;-55
2023/04/18 10:26:05;;;;;;;17.87;11.40;;;10.20;99.90;;;;;;5069563;28;20028;-53
2023/04/18 10:28:53;;;;;;;17.15;11.77;;;10.30;99.90;;;;;;5069157;28;20365;-54
2023/04/18 10:31:20;;;;;;;18.03;11.40;;;10.40;99.90;;;;;;5069546;28;20048;-51
2023/04/18 10:34:06;;;;;;;18.83;11.50;;;10.50;99.90;;;;;;5069289;28;20089;-54
2023/04/18 10:36:32;;;;;;;17.47;11.40;;;10.70;99.90;;;;;;5068756;28;20042;-53
2023/04/18 10:39:18;;;;;;;19.47;11.93;;;10.80;99.90;;;;;;5069654;28;20032;-54
2023/04/18 10:41:49;;;;;;;16.87;11.30;;;10.80;99.90;;;;;;5069931;28;20078;-54
2023/04/18 10:44:21;;;;;;;17.80;12.20;;;10.90;99.90;;;;;;5069701;28;20404;-54
2023/04/18 10:46:52;;;;;;;19.03;12.30;;;10.90;99.90;;;;;;5068204;28;20032;-54
2023/04/18 10:49:28;;;;;;;17.50;11.77;;;11.00;99.90;;;;;;5069588;28;20117;-55
2023/04/18 10:51:58;;;;;;;17.67;11.50;;;11.10;99.90;;;;;;5069416;28;20024;-53
2023/04/18 10:54:24;;;;;;;16.80;11.27;;;11.20;99.90;;;;;;5069464;28;20021;-51
2023/04/18 10:56:58;;;;;;;17.60;11.13;;;11.10;99.90;;;;;;5068711;28;20457;-52
2023/04/18 10:59:25;;;;;;;18.77;11.23;;;11.10;99.90;;;;;;5069496;28;20032;-54
2023/04/18 11:02:20;;;;;;;17.47;10.93;;;10.90;99.90;;;;;;5068237;28;20139;-54
2023/04/18 11:05:06;;;;;;;19.67;11.97;;;10.90;99.90;;;;;;5067584;28;20119;-53
2023/04/18 11:07:32;;;;;;;18.47;10.67;;;11.00;99.90;;;;;;5068865;28;20040;-53
2023/04/18 11:09:58;;;;;;;17.67;11.53;;;11.10;99.90;;;;;;5068566;28;20052;-55
2023/04/18 11:12:29;;;;;;;18.97;11.83;;;11.10;99.90;;;;;;5069248;28;20205;-55
2023/04/18 11:14:55;;;;;;;16.60;11.40;;;11.20;99.90;;;;;;5068845;28;20370;-53
2023/04/18 11:17:24;;;;;;;18.53;11.60;;;11.20;99.90;;;;;;5068486;28;20109;-53
2023/04/18 11:20:01;;;;;;;19.95;11.60;;;11.30;99.90;;;;;;5069194;28;20171;-52
2023/04/18 11:22:26;;;;;;;18.63;12.13;;;11.40;99.90;;;;;;5069040;28;20040;-49
2023/04/18 11:24:57;;;;;;;16.90;11.07;;;11.40;99.90;;;;;;5069007;28;20389;-52
2023/04/18 11:27:24;;;;;;;17.63;10.80;;;11.40;99.90;;;;;;5068960;28;20036;-50
2023/04/18 11:29:54;;;;;;;16.20;11.37;;;11.60;99.90;;;;;;5068496;28;20063;-54
2023/04/18 11:32:22;;;;;;;17.03;11.47;;;11.90;99.90;;;;;;5068645;28;20032;-52
2023/04/18 11:34:51;;;;;;;17.23;10.60;;;12.00;99.90;;;;;;5069005;28;20032;-52
2023/04/18 11:37:17;;;;;;;17.40;11.02;;;12.10;99.90;;;;;;5068103;28;20058;-54
2023/04/18 11:39:43;;;;;;;16.13;10.67;;;12.20;99.90;;;;;;5069031;28;20050;-52
2023/04/18 11:42:10;;;;;;;16.90;11.20;;;12.30;99.90;;;;;;5069062;28;20449;-53
2023/04/18 11:44:38;;;;;;;16.40;10.90;;;12.30;99.90;;;;;;5067899;28;20036;-49
2023/04/18 11:47:20;;;;;;;17.87;11.83;;;12.40;99.90;;;;;;5067651;28;20496;-58
2023/04/18 11:49:46;;;;;;;16.67;10.50;;;12.40;99.90;;;;;;5068516;28;21029;-51
2023/04/18 11:52:12;;;;;;;15.77;10.23;;;12.50;99.90;;;;;;5068953;28;20052;-52
2023/04/18 11:54:42;;;;;;;15.87;10.33;;;12.60;99.90;;;;;;5068741;28;20023;-53
2023/04/18 11:57:20;;;;;;;16.80;10.43;;;12.80;99.90;;;;;;5068359;28;20032;-53
2023/04/18 11:59:54;;;;;;;16.27;11.10;;;12.90;99.90;;;;;;5068335;28;20107;-50
2023/04/18 12:02:21;;;;;;;16.63;11.63;;;12.90;99.90;;;;;;5068023;28;20086;-51
2023/04/18 12:04:51;;;;;;;16.65;11.35;;;12.80;99.90;;;;;;5068859;28;20092;-52
2023/04/18 12:07:37;;;;;;;15.77;10.68;;;12.80;99.90;;;;;;5068235;28;20032;-49
2023/04/18 12:10:05;;;;;;;17.90;11.63;;;12.80;99.90;;;;;;5068482;28;20029;-53
2023/04/18 12:12:31;;;;;;;18.87;12.03;;;12.80;99.90;;;;;;5068413;28;20378;-53
2023/04/18 12:15:06;;;;;;;17.77;12.10;;;12.70;99.90;;;;;;5068098;28;20054;-50
2023/04/18 12:17:33;;;;;;;16.07;11.37;;;12.70;99.90;;;;;;5067684;28;20055;-52
2023/04/18 12:20:04;;;;;;;19.47;12.50;;;12.70;99.90;;;;;;5068627;28;20033;-53
2023/04/18 12:22:43;;;;;;;17.43;11.03;;;12.70;99.90;;;;;;5068285;28;20094;-48
2023/04/18 12:25:22;;;;;;;16.45;10.82;;;12.80;99.90;;;;;;5067978;28;20031;-49
2023/04/18 12:27:56;;;;;;;17.77;11.10;;;12.80;99.90;;;;;;5067633;28;20048;-51
2023/04/18 12:30:32;;;;;;;19.40;12.03;;;12.80;99.90;;;;;;5068066;28;20032;-53
2023/04/18 12:33:00;;;;;;;18.60;12.33;;;12.90;99.90;;;;;;5067620;28;20496;-50
2023/04/18 12:35:27;;;;;;;17.85;12.35;;;12.90;99.90;;;;;;5068393;28;20445;-53
2023/04/18 12:37:55;;;;;;;18.88;13.15;;;12.80;99.90;;;;;;5067863;28;20124;-52
2023/04/18 12:40:23;;;;;;;20.03;12.23;;;12.90;99.90;;;;;;5068293;28;20024;-51
2023/04/18 12:42:50;;;;;;;17.60;12.10;;;13.20;99.90;;;;;;5068381;28;20042;-51
2023/04/18 12:45:17;;;;;;;17.92;11.43;;;13.50;99.90;;;;;;5067869;28;20081;-49